createdAt,value
2022-10-02T00:00:08.301Z,0.00
2022-10-02T00:01:08.341Z,0.00
2022-10-02T00:02:08.295Z,0.00
2022-10-02T00:03:08.272Z,0.00
2022-10-02T00:04:08.276Z,0.00
2022-10-02T00:05:08.263Z,0.00
2022-10-02T00:06:08.237Z,0.00
2022-10-02T00:07:08.225Z,0.00
2022-10-02T00:08:08.260Z,0.00
2022-10-02T00:09:08.213Z,0.00
2022-10-02T00:10:08.195Z,0.00
2022-10-02T00:11:08.190Z,0.00
2022-10-02T00:12:08.173Z,0.00
2022-10-02T00:13:08.158Z,0.00
2022-10-02T00:14:08.244Z,0.00
2022-10-02T00:15:08.151Z,0.00
2022-10-02T00:16:08.213Z,0.00
2022-10-02T00:17:08.328Z,0.00
2022-10-02T00:18:08.109Z,0.00
2022-10-02T00:19:08.101Z,0.00
2022-10-02T00:20:08.113Z,0.00
2022-10-02T00:21:08.083Z,0.00
2022-10-02T00:22:08.059Z,0.00
2022-10-02T00:23:08.051Z,0.00
2022-10-02T00:24:08.064Z,0.00
2022-10-02T00:25:08.035Z,0.00
2022-10-02T00:26:08.061Z,0.00
2022-10-02T00:27:08.008Z,0.00
2022-10-02T00:28:08.071Z,0.00
2022-10-02T00:29:07.995Z,0.00
2022-10-02T00:30:07.974Z,0.00
2022-10-02T00:31:07.963Z,0.00
2022-10-02T00:32:08.033Z,0.00
2022-10-02T00:33:07.944Z,0.00
2022-10-02T00:34:09.277Z,0.00
2022-10-02T00:35:07.920Z,0.00
2022-10-02T00:36:07.909Z,0.00
2022-10-02T00:37:07.899Z,0.00
2022-10-02T00:38:07.894Z,0.00
2022-10-02T00:39:07.892Z,0.00
2022-10-02T00:40:07.888Z,0.00
2022-10-02T00:41:07.854Z,0.00
2022-10-02T00:42:07.843Z,0.00
2022-10-02T00:43:07.840Z,0.00
2022-10-02T00:44:07.883Z,0.00
2022-10-02T00:45:07.819Z,0.00
2022-10-02T00:46:07.926Z,0.00
2022-10-02T00:47:07.788Z,0.00
2022-10-02T00:48:07.786Z,0.00
2022-10-02T00:49:07.771Z,0.00
2022-10-02T00:50:07.847Z,0.00
2022-10-02T00:51:07.743Z,0.00
2022-10-02T00:52:07.744Z,0.00
2022-10-02T00:53:07.724Z,0.00
2022-10-02T00:54:07.711Z,0.00
2022-10-02T00:55:07.718Z,0.00
2022-10-02T00:56:07.751Z,0.00
2022-10-02T00:57:07.683Z,0.00
2022-10-02T00:58:07.669Z,0.00
2022-10-02T00:59:07.661Z,0.00
2022-10-02T01:00:07.646Z,0.00
2022-10-02T01:01:07.733Z,0.00
2022-10-02T01:02:07.748Z,0.00
2022-10-02T01:03:07.615Z,0.00
2022-10-02T01:04:07.620Z,0.00
2022-10-02T01:05:07.600Z,0.00
2022-10-02T01:06:07.585Z,0.00
2022-10-02T01:07:07.573Z,0.00
2022-10-02T01:08:07.622Z,0.00
2022-10-02T01:09:07.551Z,0.00
2022-10-02T01:10:07.550Z,0.00
2022-10-02T01:11:07.530Z,0.00
2022-10-02T01:12:07.544Z,0.00
2022-10-02T01:13:07.537Z,0.00
2022-10-02T01:14:07.573Z,0.00
2022-10-02T01:15:07.486Z,0.00
2022-10-02T01:16:07.492Z,0.00
2022-10-02T01:17:07.465Z,0.00
2022-10-02T01:18:07.454Z,0.00
2022-10-02T01:19:07.452Z,0.00
2022-10-02T01:20:07.494Z,0.00
2022-10-02T01:21:07.420Z,0.00
2022-10-02T01:22:07.458Z,0.00
2022-10-02T01:23:07.400Z,0.00
2022-10-02T01:24:07.388Z,0.00
2022-10-02T01:25:07.374Z,0.00
2022-10-02T01:26:07.422Z,0.00
2022-10-02T01:27:07.353Z,0.00
2022-10-02T01:28:07.417Z,0.00
2022-10-02T01:29:07.334Z,0.00
2022-10-02T01:30:07.320Z,0.00
2022-10-02T01:31:07.325Z,0.00
2022-10-02T01:32:07.329Z,0.00
2022-10-02T01:33:07.287Z,0.00
2022-10-02T01:34:07.276Z,0.00
2022-10-02T01:35:07.270Z,0.00
2022-10-02T01:36:07.255Z,0.00
2022-10-02T01:37:07.257Z,0.00
2022-10-02T01:38:07.276Z,0.00
2022-10-02T01:39:07.437Z,0.00
2022-10-02T01:40:07.435Z,0.00
2022-10-02T01:41:07.201Z,0.00
2022-10-02T01:42:07.188Z,0.00
2022-10-02T01:43:07.195Z,0.00
2022-10-02T01:44:07.225Z,0.00
2022-10-02T01:45:07.157Z,0.00
2022-10-02T01:46:07.187Z,0.00
2022-10-02T01:47:07.133Z,0.00
2022-10-02T01:48:07.133Z,0.00
2022-10-02T01:49:07.111Z,0.00
2022-10-02T01:50:07.170Z,0.00
2022-10-02T01:51:07.089Z,0.00
2022-10-02T01:52:07.089Z,0.00
2022-10-02T01:53:07.176Z,0.00
2022-10-02T01:54:07.059Z,0.00
2022-10-02T01:55:07.045Z,0.00
2022-10-02T01:56:07.110Z,0.00
2022-10-02T01:57:07.037Z,0.00
2022-10-02T01:58:07.014Z,0.00
2022-10-02T01:59:07.017Z,0.00
2022-10-02T02:00:07.016Z,0.00
2022-10-02T02:01:07.042Z,0.00
2022-10-02T02:02:07.024Z,0.00
2022-10-02T02:03:06.967Z,0.00
2022-10-02T02:04:06.947Z,0.00
2022-10-02T02:05:06.945Z,0.00
2022-10-02T02:06:06.930Z,0.00
2022-10-02T02:07:06.945Z,0.00
2022-10-02T02:08:06.984Z,0.00
2022-10-02T02:09:06.895Z,0.00
2022-10-02T02:10:06.897Z,0.00
2022-10-02T02:11:06.873Z,0.00
2022-10-02T02:12:06.866Z,0.00
2022-10-02T02:13:06.878Z,0.00
2022-10-02T02:14:06.920Z,0.00
2022-10-02T02:15:06.832Z,0.00
2022-10-02T02:16:06.889Z,0.00
2022-10-02T02:17:06.808Z,0.00
2022-10-02T02:18:06.905Z,0.00
2022-10-02T02:19:06.849Z,0.00
2022-10-02T02:20:06.832Z,0.00
2022-10-02T02:21:06.764Z,0.00
2022-10-02T02:22:06.754Z,0.00
2022-10-02T02:23:06.745Z,0.00
2022-10-02T02:24:06.739Z,0.00
2022-10-02T02:25:06.732Z,0.00
2022-10-02T02:26:07.021Z,0.00
2022-10-02T02:27:06.713Z,0.00
2022-10-02T02:28:06.804Z,0.00
2022-10-02T02:29:06.687Z,0.00
2022-10-02T02:30:06.685Z,0.00
2022-10-02T02:31:06.658Z,0.00
2022-10-02T02:32:06.718Z,0.00
2022-10-02T02:33:06.634Z,0.00
2022-10-02T02:34:06.833Z,0.00
2022-10-02T02:35:06.616Z,0.00
2022-10-02T02:36:06.619Z,0.00
2022-10-02T02:37:06.592Z,0.00
2022-10-02T02:38:06.631Z,0.00
2022-10-02T02:39:06.568Z,0.00
2022-10-02T02:40:06.557Z,0.00
2022-10-02T02:41:06.548Z,0.00
2022-10-02T02:42:06.547Z,0.00
2022-10-02T02:43:06.531Z,0.00
2022-10-02T02:44:06.523Z,0.00
2022-10-02T02:45:06.529Z,0.00
2022-10-02T02:46:06.586Z,0.00
2022-10-02T02:47:06.538Z,0.00
2022-10-02T02:48:06.494Z,0.00
2022-10-02T02:49:06.462Z,0.00
2022-10-02T02:50:06.486Z,0.00
2022-10-02T02:51:06.438Z,0.00
2022-10-02T02:52:06.429Z,0.00
2022-10-02T02:53:06.425Z,0.00
2022-10-02T02:54:06.405Z,0.00
2022-10-02T02:55:06.394Z,0.00
2022-10-02T02:56:06.397Z,0.00
2022-10-02T02:57:06.373Z,0.00
2022-10-02T02:58:06.373Z,0.00
2022-10-02T02:59:06.352Z,0.00
2022-10-02T03:00:06.343Z,0.00
2022-10-02T03:01:06.421Z,0.00
2022-10-02T03:02:06.369Z,0.00
2022-10-02T03:03:06.307Z,0.00
2022-10-02T03:04:06.327Z,0.00
2022-10-02T03:05:06.284Z,0.00
2022-10-02T03:06:06.275Z,0.00
2022-10-02T03:07:06.349Z,0.00
2022-10-02T03:08:06.256Z,0.00
2022-10-02T03:09:06.249Z,0.00
2022-10-02T03:10:06.228Z,0.00
2022-10-02T03:11:06.297Z,0.00
2022-10-02T03:12:06.207Z,0.00
2022-10-02T03:13:06.204Z,0.00
2022-10-02T03:14:06.246Z,0.00
2022-10-02T03:15:06.174Z,0.00
2022-10-02T03:16:06.233Z,0.00
2022-10-02T03:17:06.165Z,0.00
2022-10-02T03:18:06.149Z,0.00
2022-10-02T03:19:06.190Z,0.00
2022-10-02T03:20:06.145Z,0.00
2022-10-02T03:21:06.112Z,0.00
2022-10-02T03:22:06.111Z,0.00
2022-10-02T03:23:06.085Z,0.00
2022-10-02T03:24:06.077Z,0.00
2022-10-02T03:25:06.122Z,0.00
2022-10-02T03:26:06.051Z,0.00
2022-10-02T03:27:06.046Z,0.00
2022-10-02T03:28:06.062Z,0.00
2022-10-02T03:29:06.338Z,0.00
2022-10-02T03:30:06.014Z,0.00
2022-10-02T03:31:06.098Z,0.00
2022-10-02T03:32:05.995Z,0.00
2022-10-02T03:33:06.001Z,0.00
2022-10-02T03:34:05.968Z,0.00
2022-10-02T03:35:05.963Z,0.00
2022-10-02T03:36:06.024Z,0.00
2022-10-02T03:37:05.937Z,0.00
2022-10-02T03:38:05.939Z,0.00
2022-10-02T03:39:24.297Z,0.00
2022-10-02T03:40:06.902Z,0.00
2022-10-02T03:41:05.889Z,0.00
2022-10-02T03:42:05.889Z,0.00
2022-10-02T03:43:05.921Z,0.00
2022-10-02T03:44:05.857Z,0.00
2022-10-02T03:45:05.848Z,0.00
2022-10-02T03:46:05.874Z,0.00
2022-10-02T03:47:05.825Z,0.00
2022-10-02T03:48:05.825Z,0.00
2022-10-02T03:49:05.861Z,0.00
2022-10-02T03:50:05.792Z,0.00
2022-10-02T03:51:05.780Z,0.00
2022-10-02T03:52:05.885Z,0.00
2022-10-02T03:53:05.776Z,0.00
2022-10-02T03:54:05.747Z,0.00
2022-10-02T03:55:05.799Z,0.00
2022-10-02T03:56:05.727Z,0.00
2022-10-02T03:57:05.715Z,0.00
2022-10-02T03:58:05.717Z,0.00
2022-10-02T03:59:05.693Z,0.00
2022-10-02T04:00:05.686Z,0.00
2022-10-02T04:01:05.698Z,0.00
2022-10-02T04:02:05.699Z,0.00
2022-10-02T04:03:05.653Z,0.00
2022-10-02T04:04:05.649Z,0.00
2022-10-02T04:05:05.631Z,0.00
2022-10-02T04:06:05.616Z,0.00
2022-10-02T04:07:05.662Z,0.00
2022-10-02T04:08:05.725Z,0.00
2022-10-02T04:09:05.584Z,0.00
2022-10-02T04:10:05.575Z,0.00
2022-10-02T04:11:05.560Z,0.00
2022-10-02T04:12:05.553Z,0.00
2022-10-02T04:13:05.546Z,0.00
2022-10-02T04:14:05.633Z,0.00
2022-10-02T04:15:05.516Z,0.00
2022-10-02T04:16:05.632Z,0.00
2022-10-02T04:17:05.503Z,0.00
2022-10-02T04:18:05.484Z,0.00
2022-10-02T04:19:05.569Z,0.00
2022-10-02T04:20:05.475Z,0.00
2022-10-02T04:21:05.454Z,0.00
2022-10-02T04:22:05.440Z,0.00
2022-10-02T04:23:05.433Z,0.00
2022-10-02T04:24:05.448Z,0.00
2022-10-02T04:25:05.493Z,0.00
2022-10-02T04:26:05.400Z,0.00
2022-10-02T04:27:05.385Z,0.00
2022-10-02T04:28:05.503Z,0.00
2022-10-02T04:29:05.380Z,0.00
2022-10-02T04:30:05.352Z,0.00
2022-10-02T04:31:05.613Z,0.00
2022-10-02T04:32:05.330Z,0.00
2022-10-02T04:33:05.319Z,0.00
2022-10-02T04:34:05.311Z,0.00
2022-10-02T04:35:05.297Z,0.00
2022-10-02T04:36:05.290Z,0.00
2022-10-02T04:37:05.365Z,0.00
2022-10-02T04:38:05.268Z,0.00
2022-10-02T04:39:05.257Z,0.00
2022-10-02T04:40:05.269Z,0.00
2022-10-02T04:41:05.233Z,0.00
2022-10-02T04:42:05.262Z,0.00
2022-10-02T04:43:05.293Z,0.00
2022-10-02T04:44:05.202Z,0.00
2022-10-02T04:45:05.189Z,0.00
2022-10-02T04:46:05.311Z,0.00
2022-10-02T04:47:05.177Z,0.00
2022-10-02T04:48:05.157Z,0.00
2022-10-02T04:49:05.150Z,0.00
2022-10-02T04:50:05.146Z,0.00
2022-10-02T04:51:05.194Z,0.00
2022-10-02T04:52:05.113Z,0.00
2022-10-02T04:53:05.105Z,0.00
2022-10-02T04:54:05.097Z,0.00
2022-10-02T04:55:05.107Z,0.00
2022-10-02T04:56:05.093Z,0.00
2022-10-02T04:57:05.126Z,0.00
2022-10-02T04:58:05.045Z,0.00
2022-10-02T04:59:05.040Z,0.00
2022-10-02T05:00:05.033Z,0.00
2022-10-02T05:01:05.075Z,0.00
2022-10-02T05:02:05.064Z,0.00
2022-10-02T05:03:05.065Z,0.00
2022-10-02T05:04:04.984Z,0.00
2022-10-02T05:05:04.970Z,0.00
2022-10-02T05:06:04.973Z,0.00
2022-10-02T05:07:04.950Z,0.00
2022-10-02T05:08:04.939Z,0.00
2022-10-02T05:09:04.931Z,0.00
2022-10-02T05:10:05.033Z,0.00
2022-10-02T05:11:04.906Z,0.00
2022-10-02T05:12:04.934Z,0.00
2022-10-02T05:13:04.886Z,0.00
2022-10-02T05:14:04.876Z,0.00
2022-10-02T05:15:04.885Z,0.00
2022-10-02T05:16:04.999Z,0.00
2022-10-02T05:17:04.839Z,0.00
2022-10-02T05:18:04.833Z,0.00
2022-10-02T05:19:04.895Z,0.00
2022-10-02T05:20:04.808Z,0.00
2022-10-02T05:21:04.807Z,0.00
2022-10-02T05:22:04.877Z,0.00
2022-10-02T05:23:04.780Z,0.00
2022-10-02T05:24:04.768Z,0.00
2022-10-02T05:25:04.753Z,0.00
2022-10-02T05:26:05.376Z,0.00
2022-10-02T05:27:04.731Z,0.00
2022-10-02T05:28:04.870Z,5.62
2022-10-02T05:29:04.711Z,5.62
2022-10-02T05:30:04.699Z,5.62
2022-10-02T05:31:04.759Z,5.62
2022-10-02T05:32:04.674Z,5.62
2022-10-02T05:33:04.698Z,5.62
2022-10-02T05:34:04.706Z,5.62
2022-10-02T05:35:04.646Z,5.62
2022-10-02T05:36:04.632Z,5.62
2022-10-02T05:37:04.619Z,5.62
2022-10-02T05:38:04.613Z,5.62
2022-10-02T05:39:04.599Z,5.62
2022-10-02T05:40:04.624Z,5.62
2022-10-02T05:41:04.576Z,5.62
2022-10-02T05:42:04.565Z,5.62
2022-10-02T05:43:04.556Z,11.25
2022-10-02T05:44:04.643Z,11.25
2022-10-02T05:45:04.535Z,11.25
2022-10-02T05:46:04.595Z,11.25
2022-10-02T05:47:04.547Z,11.25
2022-10-02T05:48:04.504Z,11.25
2022-10-02T05:49:04.502Z,11.25
2022-10-02T05:50:04.481Z,11.25
2022-10-02T05:51:04.472Z,11.25
2022-10-02T05:52:04.461Z,11.25
2022-10-02T05:53:04.449Z,16.88
2022-10-02T05:54:04.444Z,16.88
2022-10-02T05:55:04.424Z,16.88
2022-10-02T05:56:04.413Z,16.88
2022-10-02T05:57:04.405Z,16.88
2022-10-02T05:58:04.458Z,22.50
2022-10-02T05:59:04.382Z,22.50
2022-10-02T06:00:04.400Z,22.50
2022-10-02T06:01:04.435Z,22.50
2022-10-02T06:02:04.404Z,22.50
2022-10-02T06:03:04.340Z,22.50
2022-10-02T06:04:04.393Z,28.12
2022-10-02T06:05:04.325Z,28.12
2022-10-02T06:06:04.299Z,33.75
2022-10-02T06:07:04.295Z,33.75
2022-10-02T06:08:04.283Z,33.75
2022-10-02T06:09:04.283Z,28.12
2022-10-02T06:10:04.405Z,28.12
2022-10-02T06:11:04.267Z,28.12
2022-10-02T06:12:04.247Z,28.12
2022-10-02T06:13:04.230Z,28.12
2022-10-02T06:14:04.270Z,28.12
2022-10-02T06:15:04.217Z,28.12
2022-10-02T06:16:04.263Z,28.12
2022-10-02T06:17:04.242Z,33.75
2022-10-02T06:18:04.171Z,33.75
2022-10-02T06:19:04.171Z,39.38
2022-10-02T06:20:04.310Z,39.38
2022-10-02T06:21:04.139Z,39.38
2022-10-02T06:22:04.218Z,39.38
2022-10-02T06:23:04.122Z,39.38
2022-10-02T06:24:04.109Z,39.38
2022-10-02T06:25:04.098Z,33.75
2022-10-02T06:26:04.088Z,39.38
2022-10-02T06:27:04.087Z,33.75
2022-10-02T06:28:04.180Z,33.75
2022-10-02T06:29:04.055Z,39.38
2022-10-02T06:30:04.041Z,39.38
2022-10-02T06:31:04.034Z,39.38
2022-10-02T06:32:04.123Z,39.38
2022-10-02T06:33:04.011Z,45.00
2022-10-02T06:34:04.024Z,50.62
2022-10-02T06:35:03.984Z,45.00
2022-10-02T06:36:03.975Z,45.00
2022-10-02T06:37:03.979Z,45.00
2022-10-02T06:38:03.955Z,45.00
2022-10-02T06:39:04.061Z,45.00
2022-10-02T06:40:03.938Z,50.62
2022-10-02T06:41:03.922Z,50.62
2022-10-02T06:42:03.913Z,50.62
2022-10-02T06:43:03.901Z,50.62
2022-10-02T06:44:03.886Z,45.00
2022-10-02T06:45:03.890Z,45.00
2022-10-02T06:46:03.934Z,50.62
2022-10-02T06:47:03.861Z,50.62
2022-10-02T06:48:03.874Z,45.00
2022-10-02T06:49:03.838Z,45.00
2022-10-02T06:50:03.831Z,50.62
2022-10-02T06:51:03.814Z,45.00
2022-10-02T06:52:03.864Z,50.62
2022-10-02T06:53:03.805Z,56.25
2022-10-02T06:54:03.788Z,61.88
2022-10-02T06:55:03.792Z,56.25
2022-10-02T06:56:03.761Z,56.25
2022-10-02T06:57:03.749Z,56.25
2022-10-02T06:58:03.797Z,61.88
2022-10-02T06:59:03.736Z,67.50
2022-10-02T07:00:03.718Z,67.50
2022-10-02T07:01:03.805Z,67.50
2022-10-02T07:02:03.758Z,73.12
2022-10-02T07:03:03.696Z,73.12
2022-10-02T07:04:03.753Z,73.12
2022-10-02T07:05:03.685Z,73.12
2022-10-02T07:06:03.652Z,78.75
2022-10-02T07:07:03.758Z,90.00
2022-10-02T07:08:03.641Z,101.25
2022-10-02T07:09:03.621Z,101.25
2022-10-02T07:10:03.668Z,101.25
2022-10-02T07:11:03.602Z,112.50
2022-10-02T07:12:03.591Z,118.12
2022-10-02T07:13:03.590Z,112.50
2022-10-02T07:14:03.575Z,106.88
2022-10-02T07:15:03.558Z,118.12
2022-10-02T07:16:03.678Z,135.00
2022-10-02T07:17:03.547Z,151.88
2022-10-02T07:18:03.532Z,151.88
2022-10-02T07:19:03.529Z,146.25
2022-10-02T07:20:03.536Z,123.75
2022-10-02T07:21:03.498Z,112.50
2022-10-02T07:22:15.134Z,106.88
2022-10-02T07:23:07.538Z,118.12
2022-10-02T07:24:03.466Z,129.38
2022-10-02T07:25:03.454Z,135.00
2022-10-02T07:26:03.443Z,146.25
2022-10-02T07:27:03.540Z,151.88
2022-10-02T07:28:03.507Z,174.38
2022-10-02T07:29:03.415Z,180.00
2022-10-02T07:30:03.405Z,180.00
2022-10-02T07:31:03.394Z,196.88
2022-10-02T07:32:03.377Z,208.12
2022-10-02T07:33:03.379Z,196.88
2022-10-02T07:34:03.426Z,202.50
2022-10-02T07:35:03.344Z,191.25
2022-10-02T07:36:03.359Z,185.62
2022-10-02T07:37:03.327Z,185.62
2022-10-02T07:38:03.328Z,202.50
2022-10-02T07:39:03.313Z,213.75
2022-10-02T07:40:03.334Z,230.62
2022-10-02T07:41:03.288Z,247.50
2022-10-02T07:42:03.272Z,241.88
2022-10-02T07:43:03.262Z,241.88
2022-10-02T07:44:03.259Z,225.00
2022-10-02T07:45:03.301Z,219.38
2022-10-02T07:46:03.375Z,219.38
2022-10-02T07:47:03.219Z,196.88
2022-10-02T07:48:03.223Z,174.38
2022-10-02T07:49:03.201Z,185.62
2022-10-02T07:50:03.187Z,225.00
2022-10-02T07:51:03.175Z,247.50
2022-10-02T07:52:03.204Z,292.50
2022-10-02T07:53:03.253Z,320.62
2022-10-02T07:54:03.147Z,298.12
2022-10-02T07:55:03.132Z,337.50
2022-10-02T07:56:03.180Z,360.00
2022-10-02T07:57:07.605Z,320.62
2022-10-02T07:58:04.095Z,270.00
2022-10-02T07:59:03.089Z,275.62
2022-10-02T08:00:03.099Z,348.75
2022-10-02T08:01:03.133Z,410.62
2022-10-02T08:02:03.161Z,410.62
2022-10-02T08:03:03.113Z,489.38
2022-10-02T08:04:03.031Z,382.50
2022-10-02T08:05:03.016Z,331.88
2022-10-02T08:06:03.023Z,286.88
2022-10-02T08:07:03.023Z,275.62
2022-10-02T08:08:03.010Z,286.88
2022-10-02T08:09:02.974Z,326.25
2022-10-02T08:10:02.967Z,365.62
2022-10-02T08:11:02.954Z,371.25
2022-10-02T08:12:02.958Z,376.88
2022-10-02T08:13:02.999Z,371.25
2022-10-02T08:14:02.921Z,326.25
2022-10-02T08:15:02.935Z,326.25
2022-10-02T08:16:02.951Z,348.75
2022-10-02T08:17:02.887Z,343.12
2022-10-02T08:18:22.951Z,360.00
2022-10-02T08:19:03.918Z,331.88
2022-10-02T08:20:02.864Z,303.75
2022-10-02T08:21:02.852Z,326.25
2022-10-02T08:22:02.829Z,337.50
2022-10-02T08:23:02.818Z,337.50
2022-10-02T08:24:02.835Z,331.88
2022-10-02T08:25:02.796Z,376.88
2022-10-02T08:26:02.859Z,371.25
2022-10-02T08:27:02.774Z,348.75
2022-10-02T08:28:02.841Z,376.88
2022-10-02T08:29:02.753Z,410.62
2022-10-02T08:30:02.846Z,433.12
2022-10-02T08:31:02.733Z,444.38
2022-10-02T08:32:02.799Z,427.50
2022-10-02T08:33:02.704Z,382.50
2022-10-02T08:34:02.695Z,399.38
2022-10-02T08:35:11.333Z,433.12
2022-10-02T08:36:02.673Z,438.75
2022-10-02T08:37:02.660Z,483.75
2022-10-02T08:38:02.654Z,455.62
2022-10-02T08:39:02.641Z,438.75
2022-10-02T08:40:02.663Z,506.25
2022-10-02T08:41:02.627Z,511.88
2022-10-02T08:42:02.613Z,506.25
2022-10-02T08:43:02.629Z,523.12
2022-10-02T08:44:02.588Z,506.25
2022-10-02T08:45:02.580Z,444.38
2022-10-02T08:46:02.754Z,371.25
2022-10-02T08:47:02.555Z,388.12
2022-10-02T08:48:02.548Z,450.00
2022-10-02T08:49:02.546Z,450.00
2022-10-02T08:50:02.524Z,461.25
2022-10-02T08:51:02.589Z,461.25
2022-10-02T08:52:02.505Z,461.25
2022-10-02T08:53:02.541Z,500.62
2022-10-02T08:54:02.701Z,534.38
2022-10-02T08:55:02.475Z,590.62
2022-10-02T08:56:02.491Z,590.62
2022-10-02T08:57:02.502Z,1873.12
2022-10-02T08:58:02.444Z,613.12
2022-10-02T08:59:02.429Z,646.88
2022-10-02T09:00:02.437Z,551.25
2022-10-02T09:01:02.503Z,540.00
2022-10-02T09:02:02.444Z,776.25
2022-10-02T09:03:02.434Z,1153.12
2022-10-02T09:04:02.371Z,2581.88
2022-10-02T09:05:02.357Z,810.00
2022-10-02T09:06:02.345Z,1535.62
2022-10-02T09:07:02.340Z,759.38
2022-10-02T09:08:02.333Z,1125.00
2022-10-02T09:09:02.342Z,669.38
2022-10-02T09:10:02.304Z,2475.00
2022-10-02T09:11:02.294Z,2711.25
2022-10-02T09:12:02.308Z,1265.62
2022-10-02T09:13:02.282Z,652.50
2022-10-02T09:14:02.270Z,1586.25
2022-10-02T09:15:02.257Z,793.12
2022-10-02T09:16:02.342Z,2244.38
2022-10-02T09:17:02.225Z,725.62
2022-10-02T09:18:02.217Z,495.00
2022-10-02T09:19:02.218Z,2131.88
2022-10-02T09:20:02.199Z,2036.25
2022-10-02T09:21:02.185Z,1963.12
2022-10-02T09:22:02.179Z,2081.25
2022-10-02T09:23:02.175Z,2109.38
2022-10-02T09:24:02.154Z,2362.50
2022-10-02T09:25:02.141Z,2435.62
2022-10-02T09:26:02.134Z,2244.38
2022-10-02T09:27:02.169Z,2278.12
2022-10-02T09:28:02.206Z,2435.62
2022-10-02T09:29:02.119Z,1665.00
2022-10-02T09:30:02.354Z,2261.25
2022-10-02T09:31:02.142Z,2379.38
2022-10-02T09:32:02.143Z,2458.12
2022-10-02T09:33:02.148Z,2373.75
2022-10-02T09:34:02.055Z,2390.62
2022-10-02T09:35:02.098Z,2452.50
2022-10-02T09:36:02.024Z,2446.88
2022-10-02T09:37:02.010Z,2441.25
2022-10-02T09:38:01.999Z,2491.88
2022-10-02T09:39:02.046Z,2379.38
2022-10-02T09:40:01.983Z,2385.00
2022-10-02T09:41:01.986Z,2008.12
2022-10-02T09:42:01.982Z,2356.88
2022-10-02T09:43:02.045Z,2615.62
2022-10-02T09:44:01.992Z,2666.25
2022-10-02T09:45:02.174Z,2514.38
2022-10-02T09:46:01.996Z,2446.88
2022-10-02T09:47:01.904Z,2323.12
2022-10-02T09:48:01.910Z,2148.75
2022-10-02T09:49:01.878Z,2311.88
2022-10-02T09:50:01.882Z,2295.00
2022-10-02T09:51:01.913Z,2205.00
2022-10-02T09:52:01.847Z,2193.75
2022-10-02T09:53:01.859Z,2283.75
2022-10-02T09:54:01.838Z,2311.88
2022-10-02T09:55:01.820Z,2345.62
2022-10-02T09:56:01.803Z,2413.12
2022-10-02T09:57:01.807Z,2401.88
2022-10-02T09:58:01.790Z,2356.88
2022-10-02T09:59:01.773Z,2176.88
2022-10-02T10:00:01.783Z,2053.12
2022-10-02T10:01:01.873Z,2041.88
2022-10-02T10:02:01.850Z,2148.75
2022-10-02T10:03:01.744Z,2266.88
2022-10-02T10:04:01.718Z,2283.75
2022-10-02T10:05:06.154Z,2216.25
2022-10-02T10:06:01.703Z,2255.62
2022-10-02T10:07:01.700Z,2317.50
2022-10-02T10:08:01.683Z,2238.75
2022-10-02T10:09:01.670Z,2160.00
2022-10-02T10:10:02.277Z,2199.38
2022-10-02T10:11:01.656Z,2221.88
2022-10-02T10:12:01.740Z,2154.38
2022-10-02T10:13:01.618Z,2176.88
2022-10-02T10:14:01.649Z,2323.12
2022-10-02T10:15:01.597Z,2300.62
2022-10-02T10:16:01.680Z,2283.75
2022-10-02T10:17:01.580Z,2525.62
2022-10-02T10:18:01.571Z,2458.12
2022-10-02T10:19:01.569Z,2199.38
2022-10-02T10:20:01.712Z,2148.75
2022-10-02T10:21:01.529Z,2278.12
2022-10-02T10:22:01.522Z,1901.25
2022-10-02T10:23:01.568Z,1080.00
2022-10-02T10:24:01.507Z,1113.75
2022-10-02T10:25:01.495Z,1620.00
2022-10-02T10:26:01.483Z,2514.38
2022-10-02T10:27:01.465Z,2520.00
2022-10-02T10:28:01.493Z,2160.00
2022-10-02T10:29:01.468Z,2266.88
2022-10-02T10:30:01.436Z,2778.75
2022-10-02T10:31:01.432Z,2688.75
2022-10-02T10:32:01.582Z,1091.25
2022-10-02T10:33:01.402Z,669.38
2022-10-02T10:34:01.387Z,2244.38
2022-10-02T10:35:01.393Z,2070.00
2022-10-02T10:36:01.427Z,2092.50
2022-10-02T10:37:01.376Z,2036.25
2022-10-02T10:38:01.359Z,2086.88
2022-10-02T10:39:01.333Z,1608.75
2022-10-02T10:40:01.319Z,2368.12
2022-10-02T10:41:01.310Z,2536.88
2022-10-02T10:42:01.302Z,2458.12
2022-10-02T10:43:07.965Z,2306.25
2022-10-02T10:44:02.305Z,2120.62
2022-10-02T10:45:01.312Z,2047.50
2022-10-02T10:46:01.319Z,2193.75
2022-10-02T10:47:01.242Z,2345.62
2022-10-02T10:48:01.335Z,2441.25
2022-10-02T10:49:01.249Z,2452.50
2022-10-02T10:50:01.214Z,2503.12
2022-10-02T10:51:01.245Z,2531.25
2022-10-02T10:52:01.190Z,2418.75
2022-10-02T10:53:01.257Z,2626.88
2022-10-02T10:54:02.183Z,2553.75
2022-10-02T10:55:01.156Z,2536.88
2022-10-02T10:56:01.145Z,2587.50
2022-10-02T10:57:01.138Z,2435.62
2022-10-02T10:58:01.222Z,2486.25
2022-10-02T10:59:01.112Z,1411.88
2022-10-02T11:00:01.135Z,1096.88
2022-10-02T11:01:01.239Z,776.25
2022-10-02T11:02:01.119Z,731.25
2022-10-02T11:03:01.071Z,1203.75
2022-10-02T11:04:01.153Z,1569.38
2022-10-02T11:05:01.055Z,2598.75
2022-10-02T11:06:01.040Z,793.12
2022-10-02T11:07:01.041Z,2536.88
2022-10-02T11:08:01.019Z,2593.12
2022-10-02T11:09:01.076Z,2643.75
2022-10-02T11:10:00.995Z,2480.62
2022-10-02T11:11:00.985Z,1260.00
2022-10-02T11:12:00.972Z,2688.75
2022-10-02T11:13:01.067Z,2491.88
2022-10-02T11:14:00.953Z,2688.75
2022-10-02T11:15:00.953Z,2643.75
2022-10-02T11:16:01.002Z,2733.75
2022-10-02T11:17:00.922Z,1293.75
2022-10-02T11:18:00.910Z,748.12
2022-10-02T11:19:00.897Z,2536.88
2022-10-02T11:20:01.006Z,2362.50
2022-10-02T11:21:00.880Z,2300.62
2022-10-02T11:22:00.890Z,1468.12
2022-10-02T11:23:00.857Z,2171.25
2022-10-02T11:24:00.845Z,1141.88
2022-10-02T11:25:00.835Z,2430.00
2022-10-02T11:26:00.855Z,2508.75
2022-10-02T11:27:00.827Z,2508.75
2022-10-02T11:28:00.876Z,838.12
2022-10-02T11:29:00.794Z,793.12
2022-10-02T11:30:00.779Z,1676.25
2022-10-02T11:31:00.785Z,2458.12
2022-10-02T11:32:00.822Z,2323.12
2022-10-02T11:33:00.747Z,2261.25
2022-10-02T11:34:00.844Z,1681.88
2022-10-02T11:35:00.725Z,1608.75
2022-10-02T11:36:00.801Z,1361.25
2022-10-02T11:37:00.706Z,607.50
2022-10-02T11:38:03.971Z,658.12
2022-10-02T11:39:00.777Z,1968.75
2022-10-02T11:40:00.763Z,2356.88
2022-10-02T11:41:00.667Z,2407.50
2022-10-02T11:42:00.650Z,2469.38
2022-10-02T11:43:00.644Z,2008.12
2022-10-02T11:44:00.630Z,2390.62
2022-10-02T11:45:00.750Z,2120.62
2022-10-02T11:46:00.711Z,1873.12
2022-10-02T11:47:00.816Z,2401.88
2022-10-02T11:48:00.589Z,2385.00
2022-10-02T11:49:00.577Z,2086.88
2022-10-02T11:50:00.568Z,2300.62
2022-10-02T11:51:00.752Z,933.75
2022-10-02T11:52:00.569Z,1890.00
2022-10-02T11:53:00.536Z,1760.62
2022-10-02T11:54:00.520Z,2373.75
2022-10-02T11:55:00.571Z,2531.25
2022-10-02T11:56:00.517Z,2413.12
2022-10-02T11:57:00.497Z,2373.75
2022-10-02T11:58:00.562Z,1524.38
2022-10-02T11:59:00.464Z,2278.12
2022-10-02T12:00:00.460Z,2120.62
2022-10-02T12:01:00.457Z,2323.12
2022-10-02T12:02:00.475Z,2255.62
2022-10-02T12:03:00.553Z,2154.38
2022-10-02T12:04:00.415Z,2154.38
2022-10-02T12:05:00.446Z,2143.12
2022-10-02T12:06:00.395Z,1963.12
2022-10-02T12:07:00.379Z,1935.00
2022-10-02T12:08:00.415Z,2120.62
2022-10-02T12:09:00.357Z,2238.75
2022-10-02T12:10:00.346Z,2193.75
2022-10-02T12:11:00.338Z,2047.50
2022-10-02T12:12:00.324Z,1845.00
2022-10-02T12:13:00.317Z,1850.62
2022-10-02T12:14:00.328Z,2143.12
2022-10-02T12:15:00.296Z,2182.50
2022-10-02T12:16:00.312Z,2193.75
2022-10-02T12:17:00.324Z,2182.50
2022-10-02T12:18:00.317Z,2424.38
2022-10-02T12:19:00.280Z,2452.50
2022-10-02T12:20:00.244Z,2047.50
2022-10-02T12:21:00.232Z,1929.38
2022-10-02T12:22:00.226Z,1946.25
2022-10-02T12:23:00.216Z,2070.00
2022-10-02T12:24:00.232Z,2250.00
2022-10-02T12:25:00.213Z,2165.62
2022-10-02T12:26:00.196Z,922.50
2022-10-02T12:27:00.167Z,2238.75
2022-10-02T12:28:00.249Z,2306.25
2022-10-02T12:29:00.140Z,2148.75
2022-10-02T12:30:00.200Z,1996.88
2022-10-02T12:31:00.235Z,1980.00
2022-10-02T12:32:00.220Z,1980.00
2022-10-02T12:33:00.113Z,1974.38
2022-10-02T12:34:00.109Z,2131.88
2022-10-02T12:35:00.090Z,2098.12
2022-10-02T12:36:00.088Z,2030.62
2022-10-02T12:37:00.088Z,2115.00
2022-10-02T12:38:00.053Z,2058.75
2022-10-02T12:39:00.039Z,1884.38
2022-10-02T12:40:00.071Z,1929.38
2022-10-02T12:41:00.077Z,1951.88
2022-10-02T12:42:00.002Z,1833.75
2022-10-02T12:42:59.998Z,1715.62
2022-10-02T12:43:59.983Z,1620.00
2022-10-02T12:44:59.973Z,1569.38
2022-10-02T12:46:00.017Z,1591.88